Time;durP1;ratioP1;P1;durP2;ratioP2;P2;SDS_P1;SDS_P2;PMS_P1;PMS_P2;Temp;Humidity;BMP_temperature;BMP_pressure;BME280_temperature;BME280_humidity;BME280_pressure;Samples;Min_cycle;Max_cycle;Signal;HPM_P1;HPM_P2
2021/11/06 00:00:36;;;;;;;9.48;5.95;;;7.70;99.90;;;;;;4130497;28;20038;-77
2021/11/06 00:02:37;;;;;;;9.88;6.00;;;7.70;99.90;;;;;;4130495;28;20046;-77
2021/11/06 00:04:37;;;;;;;14.35;5.97;;;7.70;99.90;;;;;;4129776;28;20454;-78
2021/11/06 00:06:39;;;;;;;10.38;5.88;;;7.60;99.90;;;;;;4124211;28;20515;-76
2021/11/06 00:08:40;;;;;;;9.68;5.97;;;7.60;99.90;;;;;;4130566;28;20394;-76
2021/11/06 00:10:40;;;;;;;11.10;6.47;;;7.60;99.90;;;;;;4132105;28;20125;-77
2021/11/06 00:12:42;;;;;;;10.93;5.97;;;7.60;99.90;;;;;;4130593;28;20022;-77
2021/11/06 00:14:43;;;;;;;11.80;6.22;;;7.60;99.90;;;;;;4129597;28;20133;-77
2021/11/06 00:16:43;;;;;;;10.77;6.32;;;7.60;99.90;;;;;;4129959;28;20030;-77
2021/11/06 00:18:44;;;;;;;10.07;6.72;;;7.70;99.90;;;;;;4128239;28;20042;-77
2021/11/06 00:20:44;;;;;;;11.25;6.78;;;7.70;99.90;;;;;;4130625;28;20038;-77
2021/11/06 00:22:45;;;;;;;12.80;7.20;;;7.70;99.90;;;;;;4129860;28;20030;-77
2021/11/06 00:24:46;;;;;;;17.58;7.30;;;7.70;99.90;;;;;;4115828;28;20037;-77
2021/11/06 00:26:51;;;;;;;12.55;8.07;;;7.60;99.90;;;;;;4128007;28;20039;-76
2021/11/06 00:28:51;;;;;;;15.77;8.57;;;7.60;99.90;;;;;;4130416;28;20030;-77
2021/11/06 00:30:52;;;;;;;13.15;7.18;;;7.60;99.90;;;;;;4128165;28;20129;-77
2021/11/06 00:32:52;;;;;;;15.55;8.60;;;7.60;99.90;;;;;;4129568;28;20570;-77
2021/11/06 00:34:54;;;;;;;16.98;6.55;;;7.60;99.90;;;;;;4127434;28;20510;-77
2021/11/06 00:36:55;;;;;;;15.52;7.78;;;7.60;99.90;;;;;;4130283;28;20490;-77
2021/11/06 00:38:55;;;;;;;14.73;7.75;;;7.60;99.90;;;;;;4132218;28;20027;-77
2021/11/06 00:40:56;;;;;;;12.75;6.70;;;7.60;99.90;;;;;;4130577;28;20054;-77
2021/11/06 00:42:57;;;;;;;9.43;6.90;;;7.70;99.90;;;;;;4126283;28;20426;-77
2021/11/06 00:44:57;;;;;;;13.63;8.70;;;7.60;99.90;;;;;;4119262;28;20504;-77
2021/11/06 00:46:58;;;;;;;11.95;8.05;;;7.60;99.90;;;;;;4145937;28;20533;-77
2021/11/06 00:48:59;;;;;;;12.43;7.95;;;7.60;99.90;;;;;;4126288;28;20038;-77
2021/11/06 00:50:59;;;;;;;9.43;7.40;;;7.60;99.90;;;;;;4129318;28;20419;-77
2021/11/06 00:53:00;;;;;;;9.70;7.88;;;7.60;99.90;;;;;;4122115;28;20042;-76
2021/11/06 00:55:01;;;;;;;10.55;7.60;;;7.60;99.90;;;;;;4130004;28;20504;-77
2021/11/06 00:57:02;;;;;;;10.73;7.85;;;7.60;99.90;;;;;;4130273;28;20037;-76
2021/11/06 00:59:03;;;;;;;9.77;7.70;;;7.70;99.90;;;;;;4129274;28;20038;-76
2021/11/06 01:01:04;;;;;;;14.68;8.45;;;7.70;99.90;;;;;;4128651;28;20026;-75
2021/11/06 01:03:04;;;;;;;11.73;8.18;;;7.60;99.90;;;;;;4129322;28;20244;-76
2021/11/06 01:05:07;;;;;;;11.75;8.60;;;7.50;99.90;;;;;;4128910;28;20391;-76
2021/11/06 01:07:08;;;;;;;17.33;8.57;;;7.60;99.90;;;;;;4130064;28;20027;-76
2021/11/06 01:09:09;;;;;;;13.27;9.23;;;7.60;99.90;;;;;;4130804;28;20038;-77
2021/11/06 01:11:10;;;;;;;17.90;8.25;;;7.60;99.90;;;;;;4131133;28;20031;-77
2021/11/06 01:13:11;;;;;;;11.80;8.60;;;7.60;99.90;;;;;;4129638;28;20068;-77
2021/11/06 01:15:14;;;;;;;17.20;9.27;;;7.60;99.90;;;;;;4119005;28;20014;-77
2021/11/06 01:17:14;;;;;;;19.20;8.48;;;7.70;99.90;;;;;;4128477;28;20030;-77
2021/11/06 01:19:15;;;;;;;12.93;7.55;;;7.70;99.90;;;;;;4129372;28;20478;-77
2021/11/06 01:21:16;;;;;;;13.52;8.80;;;7.70;99.90;;;;;;4131795;28;20034;-77
2021/11/06 01:23:17;;;;;;;17.60;9.43;;;7.70;99.90;;;;;;4132034;28;20038;-77
2021/11/06 01:25:18;;;;;;;12.35;8.60;;;7.70;99.90;;;;;;4128527;28;20129;-77
2021/11/06 01:27:18;;;;;;;12.55;8.88;;;7.60;99.90;;;;;;4130920;28;20130;-77
2021/11/06 01:29:19;;;;;;;12.98;8.38;;;7.50;99.90;;;;;;4129386;28;20061;-77
2021/11/06 01:31:20;;;;;;;13.63;9.40;;;7.50;99.90;;;;;;4114724;28;20023;-77
2021/11/06 01:33:20;;;;;;;10.60;8.05;;;7.50;99.90;;;;;;4131122;28;20041;-77
2021/11/06 01:35:21;;;;;;;16.02;8.63;;;7.50;99.90;;;;;;4127481;28;20049;-77
2021/11/06 01:37:22;;;;;;;16.98;8.93;;;7.60;99.90;;;;;;4129285;28;20069;-77
2021/11/06 01:39:22;;;;;;;14.88;8.20;;;7.60;99.90;;;;;;4128337;28;20112;-77
2021/11/06 01:41:23;;;;;;;15.32;9.68;;;7.60;99.90;;;;;;4130732;28;20111;-76
2021/11/06 01:43:24;;;;;;;13.82;8.95;;;7.60;99.90;;;;;;4129164;28;20084;-76
2021/11/06 01:45:25;;;;;;;11.88;8.23;;;7.60;99.90;;;;;;4126928;28;20034;-77
2021/11/06 01:47:25;;;;;;;14.70;9.35;;;7.60;99.90;;;;;;4121292;28;20050;-77
2021/11/06 01:49:26;;;;;;;12.68;9.30;;;7.60;99.90;;;;;;4126251;28;20047;-77
2021/11/06 01:51:27;;;;;;;12.25;8.35;;;7.60;99.90;;;;;;4123431;28;20036;-76
2021/11/06 01:53:28;;;;;;;13.73;7.93;;;7.70;99.90;;;;;;4129869;28;20038;-76
2021/11/06 01:55:29;;;;;;;14.05;9.52;;;7.70;99.90;;;;;;4130414;28;20034;-77
2021/11/06 01:57:30;;;;;;;13.43;9.38;;;7.70;99.90;;;;;;4130276;28;20558;-78
2021/11/06 01:59:30;;;;;;;13.65;9.50;;;7.70;99.90;;;;;;4131311;28;20050;-77
2021/11/06 02:01:31;;;;;;;15.95;8.90;;;7.60;99.90;;;;;;4129675;28;20467;-77
2021/11/06 02:03:33;;;;;;;19.08;10.70;;;7.60;99.90;;;;;;4129448;28;20052;-77
2021/11/06 02:05:34;;;;;;;16.25;10.30;;;7.60;99.90;;;;;;4118249;28;20683;-77
2021/11/06 02:07:35;;;;;;;11.88;8.88;;;7.60;99.90;;;;;;4142788;28;20088;-77
2021/11/06 02:09:37;;;;;;;16.52;8.85;;;7.70;99.90;;;;;;4129911;28;20390;-76
2021/11/06 02:11:38;;;;;;;16.67;9.60;;;7.70;99.90;;;;;;4128201;28;20438;-76
2021/11/06 02:13:39;;;;;;;11.20;8.60;;;7.70;99.90;;;;;;4129972;28;20030;-76
2021/11/06 02:15:40;;;;;;;14.57;9.20;;;7.70;99.90;;;;;;4130176;28;20034;-76
2021/11/06 02:17:45;;;;;;;13.32;9.25;;;7.70;99.90;;;;;;4131233;28;20524;-76
2021/11/06 02:19:45;;;;;;;8.35;6.53;;;7.70;99.90;;;;;;4130809;28;20544;-76
2021/11/06 02:21:47;;;;;;;16.17;9.23;;;7.80;99.90;;;;;;4129157;28;20034;-77
2021/11/06 02:23:49;;;;;;;13.75;9.20;;;7.80;99.90;;;;;;4130195;28;20041;-77
2021/11/06 02:25:49;;;;;;;14.32;8.30;;;7.80;99.90;;;;;;4129711;28;20050;-77
2021/11/06 02:27:50;;;;;;;12.80;10.32;;;7.80;99.90;;;;;;4127855;28;20038;-77
2021/11/06 02:29:51;;;;;;;13.63;9.00;;;7.80;99.90;;;;;;4127514;28;20034;-77
2021/11/06 02:31:52;;;;;;;13.88;8.68;;;7.80;99.90;;;;;;4128577;28;20096;-77
2021/11/06 02:33:53;;;;;;;16.33;8.95;;;7.80;99.90;;;;;;4130346;28;20037;-76
2021/11/06 02:35:54;;;;;;;20.35;9.77;;;7.70;99.90;;;;;;4131263;28;20486;-77
2021/11/06 02:37:54;;;;;;;13.68;8.35;;;7.60;99.90;;;;;;4128943;28;20049;-77
2021/11/06 02:39:55;;;;;;;14.20;8.63;;;7.70;99.90;;;;;;4127811;28;20414;-77
2021/11/06 02:42:08;;;;;;;17.08;9.48;;;7.70;99.90;;;;;;4131348;28;20066;-76
2021/11/06 02:44:11;;;;;;;14.82;9.40;;;7.70;99.90;;;;;;4127508;28;20034;-76
2021/11/06 02:46:12;;;;;;;;;;;7.70;99.90;;;;;;4130382;28;20125;-76
2021/11/06 02:48:12;;;;;;;13.25;8.23;;;7.70;99.90;;;;;;4123928;28;19918;-76
2021/11/06 02:50:13;;;;;;;15.15;9.85;;;7.80;99.90;;;;;;4124075;28;20553;-76
2021/11/06 02:52:14;;;;;;;17.92;9.57;;;7.90;99.90;;;;;;4128311;28;20121;-77
2021/11/06 02:54:15;;;;;;;14.57;9.90;;;7.90;99.90;;;;;;4127485;28;20080;-76
2021/11/06 02:56:15;;;;;;;13.93;9.10;;;7.90;99.90;;;;;;4128909;28;20038;-77
2021/11/06 02:58:16;;;;;;;13.93;9.02;;;7.80;99.90;;;;;;4129755;28;20030;-77
2021/11/06 03:00:18;;;;;;;13.32;9.10;;;7.80;99.90;;;;;;4129893;28;20434;-77
2021/11/06 03:02:19;;;;;;;15.93;9.70;;;7.80;99.90;;;;;;4128238;28;20529;-77
2021/11/06 03:04:20;;;;;;;13.93;10.25;;;7.70;99.90;;;;;;4129656;28;20100;-77
2021/11/06 03:06:20;;;;;;;13.80;10.07;;;7.70;99.90;;;;;;4127641;28;20072;-77
2021/11/06 03:08:21;;;;;;;13.13;9.68;;;7.90;99.90;;;;;;4129631;28;20038;-77
2021/11/06 03:10:22;;;;;;;16.42;9.77;;;7.90;99.90;;;;;;4128971;28;20038;-77
2021/11/06 03:12:22;;;;;;;13.98;9.88;;;7.80;99.90;;;;;;4125647;28;20030;-77
2021/11/06 03:14:25;;;;;;;13.73;11.00;;;7.80;99.90;;;;;;4141823;28;20068;-77
2021/11/06 03:16:25;;;;;;;12.82;9.65;;;7.70;99.90;;;;;;4126787;28;20049;-77
2021/11/06 03:18:26;;;;;;;17.15;10.57;;;7.70;99.90;;;;;;4128221;28;20045;-78
2021/11/06 03:20:26;;;;;;;20.00;11.15;;;7.70;99.90;;;;;;4127695;28;20049;-78
2021/11/06 03:22:27;;;;;;;17.70;10.95;;;7.70;99.90;;;;;;4126437;28;20058;-78
2021/11/06 03:24:28;;;;;;;16.42;10.65;;;7.70;99.90;;;;;;4126493;28;20102;-77
2021/11/06 03:26:28;;;;;;;17.25;11.63;;;7.80;99.90;;;;;;4127664;28;20026;-76
2021/11/06 03:28:29;;;;;;;17.05;10.95;;;7.90;99.90;;;;;;4127361;28;20038;-76
2021/11/06 03:30:30;;;;;;;14.23;10.23;;;7.90;99.90;;;;;;4129720;28;20033;-76
2021/11/06 03:32:30;;;;;;;21.30;12.18;;;7.90;99.90;;;;;;4127586;28;20042;-76
2021/11/06 03:34:31;;;;;;;20.60;12.07;;;7.90;99.90;;;;;;4120622;28;20031;-76
2021/11/06 03:36:32;;;;;;;19.23;12.90;;;7.80;99.90;;;;;;4121226;28;20125;-76
2021/11/06 03:38:32;;;;;;;25.25;13.55;;;7.70;99.90;;;;;;4129666;28;20038;-76
2021/11/06 03:40:33;;;;;;;24.92;13.73;;;7.70;99.90;;;;;;4129066;28;20038;-76
2021/11/06 03:42:34;;;;;;;26.00;13.10;;;7.60;99.90;;;;;;4129779;28;20054;-76
2021/11/06 03:44:36;;;;;;;26.45;12.77;;;7.70;99.90;;;;;;4130351;28;20371;-76
2021/11/06 03:46:37;;;;;;;25.23;12.05;;;7.80;99.90;;;;;;4123438;28;20502;-77
2021/11/06 03:48:37;;;;;;;27.90;14.70;;;7.80;99.90;;;;;;4124629;28;20037;-77
2021/11/06 03:50:38;;;;;;;29.00;15.65;;;7.60;99.90;;;;;;4128261;28;20997;-77
2021/11/06 03:52:39;;;;;;;27.55;14.48;;;7.40;99.90;;;;;;4129694;28;20042;-77
2021/11/06 03:54:42;;;;;;;23.02;12.35;;;7.40;99.90;;;;;;4129722;28;20125;-77
2021/11/06 03:56:42;;;;;;;35.00;15.02;;;7.50;99.90;;;;;;4127369;28;20073;-77
2021/11/06 03:58:43;;;;;;;38.53;17.15;;;7.50;99.90;;;;;;4134168;28;20382;-77
2021/11/06 04:00:44;;;;;;;28.42;14.75;;;7.50;99.90;;;;;;4125851;28;20529;-77
2021/11/06 04:02:45;;;;;;;30.17;14.20;;;7.60;99.90;;;;;;4127901;28;20038;-78
2021/11/06 04:04:46;;;;;;;35.42;15.80;;;7.60;99.90;;;;;;4142554;28;20087;-77
2021/11/06 04:06:47;;;;;;;31.92;15.50;;;7.50;99.90;;;;;;4130994;28;20073;-77
2021/11/06 04:08:48;;;;;;;29.77;14.13;;;7.60;99.90;;;;;;4127822;28;20049;-77
2021/11/06 04:10:49;;;;;;;28.95;14.48;;;7.60;99.90;;;;;;4129293;28;20035;-76
2021/11/06 04:12:50;;;;;;;28.95;17.55;;;7.60;99.90;;;;;;4128708;28;20038;-77
2021/11/06 04:14:50;;;;;;;29.60;14.88;;;7.60;99.90;;;;;;4123699;28;20053;-77
2021/11/06 04:16:51;;;;;;;30.08;16.05;;;7.50;99.90;;;;;;4127568;28;20084;-77
2021/11/06 04:18:52;;;;;;;30.40;14.40;;;7.40;99.90;;;;;;4128832;28;20078;-76
2021/11/06 04:20:52;;;;;;;30.80;17.02;;;7.40;99.90;;;;;;4122159;28;20019;-75
2021/11/06 04:22:53;;;;;;;31.77;16.75;;;7.50;99.90;;;;;;4120789;28;20062;-76
2021/11/06 04:24:54;;;;;;;27.15;15.90;;;7.50;99.90;;;;;;4128463;28;20109;-78
2021/11/06 04:26:54;;;;;;;29.05;15.43;;;7.40;99.90;;;;;;4126851;28;20058;-76
2021/11/06 04:28:55;;;;;;;31.48;17.35;;;7.40;99.90;;;;;;4128791;28;20066;-77
2021/11/06 04:30:56;;;;;;;26.75;14.50;;;7.40;99.90;;;;;;4128488;28;20035;-76
2021/11/06 04:32:56;;;;;;;28.83;15.27;;;7.40;99.90;;;;;;4124187;28;20101;-77
2021/11/06 04:34:57;;;;;;;32.38;15.35;;;7.50;99.90;;;;;;4128112;28;20110;-76
2021/11/06 04:36:57;;;;;;;29.00;15.23;;;7.50;99.90;;;;;;4129686;28;20044;-77
2021/11/06 04:38:59;;;;;;;31.77;16.38;;;;;;;;;;4129293;28;20149;-77
2021/11/06 04:40:59;;;;;;;33.13;16.23;;;7.60;99.90;;;;;;4132747;28;20042;-76
2021/11/06 04:43:00;;;;;;;30.05;14.60;;;7.60;99.90;;;;;;4129966;28;20041;-77
2021/11/06 04:45:01;;;;;;;36.53;17.42;;;7.50;99.90;;;;;;4124443;28;20078;-77
2021/11/06 04:47:02;;;;;;;32.22;16.90;;;7.40;99.90;;;;;;4130783;28;20042;-77
2021/11/06 04:49:03;;;;;;;35.95;18.17;;;7.40;99.90;;;;;;4147541;28;20026;-77
2021/11/06 04:51:03;;;;;;;35.10;16.88;;;7.40;99.90;;;;;;4127122;28;20030;-77
2021/11/06 04:53:04;;;;;;;38.85;18.00;;;7.40;99.90;;;;;;4118639;28;20105;-76
2021/11/06 04:55:08;;;;;;;30.98;18.15;;;7.30;99.90;;;;;;4130716;28;20041;-77
2021/11/06 04:57:08;;;;;;;35.88;18.10;;;7.20;99.90;;;;;;4130940;28;20042;-77
2021/11/06 04:59:10;;;;;;;33.08;19.02;;;7.20;99.90;;;;;;4126258;28;20047;-76
2021/11/06 05:01:11;;;;;;;31.58;16.63;;;7.20;99.90;;;;;;4132912;28;20166;-76
2021/11/06 05:03:14;;;;;;;34.03;19.27;;;7.30;99.90;;;;;;4128830;28;20456;-77
2021/11/06 05:05:14;;;;;;;38.83;19.02;;;7.30;99.90;;;;;;4129854;28;20508;-75
2021/11/06 05:07:15;;;;;;;35.80;19.02;;;7.30;99.90;;;;;;4130515;28;20039;-76
2021/11/06 05:09:16;;;;;;;35.15;16.65;;;7.30;99.90;;;;;;4130649;28;20030;-76
2021/11/06 05:11:17;;;;;;;33.97;17.88;;;7.30;99.90;;;;;;4131674;28;20514;-76
2021/11/06 05:13:17;;;;;;;38.00;20.83;;;7.30;99.90;;;;;;4131082;28;20385;-76
2021/11/06 05:15:18;;;;;;;41.60;21.25;;;7.30;99.90;;;;;;4131331;28;20125;-77
2021/11/06 05:17:19;;;;;;;30.90;16.98;;;7.20;99.90;;;;;;4131631;28;20053;-76
2021/11/06 05:19:20;;;;;;;34.47;19.27;;;7.20;99.90;;;;;;4131213;28;20501;-76
2021/11/06 05:21:22;;;;;;;43.63;20.13;;;7.20;99.90;;;;;;4132073;28;20058;-76
2021/11/06 05:23:22;;;;;;;31.88;16.65;;;7.30;99.90;;;;;;4130791;28;20054;-76
2021/11/06 05:25:24;;;;;;;32.85;19.48;;;7.30;99.90;;;;;;4129481;28;20505;-76
2021/11/06 05:27:24;;;;;;;33.53;18.75;;;7.30;99.90;;;;;;4129404;28;20098;-76
2021/11/06 05:29:26;;;;;;;37.70;18.98;;;7.30;99.90;;;;;;4131505;28;20084;-76
2021/11/06 05:31:26;;;;;;;33.50;20.88;;;7.30;99.90;;;;;;4130553;28;20174;-76
2021/11/06 05:33:27;;;;;;;32.35;17.77;;;7.20;99.90;;;;;;4128512;28;20035;-76
2021/11/06 05:35:27;;;;;;;43.78;19.20;;;7.20;99.90;;;;;;4131805;28;20147;-77
2021/11/06 05:37:28;;;;;;;34.72;19.63;;;7.30;99.90;;;;;;4130430;28;20505;-76
2021/11/06 05:39:29;;;;;;;32.65;19.75;;;7.10;99.90;;;;;;4131747;28;20394;-77
2021/11/06 05:41:30;;;;;;;31.90;18.92;;;7.20;99.90;;;;;;4129427;28;20042;-77
2021/11/06 05:43:31;;;;;;;34.42;20.52;;;7.30;99.90;;;;;;4129427;28;20018;-77
2021/11/06 05:45:32;;;;;;;38.78;20.75;;;7.40;99.90;;;;;;4130882;28;20446;-77
2021/11/06 05:47:32;;;;;;;29.27;17.77;;;7.40;99.90;;;;;;4131357;28;20022;-77
2021/11/06 05:49:33;;;;;;;30.98;20.35;;;7.40;99.90;;;;;;4130681;28;20032;-78
2021/11/06 05:51:35;;;;;;;41.95;23.33;;;7.30;99.90;;;;;;4130301;28;20037;-77
2021/11/06 05:53:35;;;;;;;36.40;20.48;;;7.30;99.90;;;;;;4129516;28;20069;-77
2021/11/06 05:55:36;;;;;;;30.67;16.45;;;7.40;99.90;;;;;;4130985;28;20034;-77
2021/11/06 05:57:37;;;;;;;34.80;20.63;;;7.40;99.90;;;;;;4130684;28;20034;-76
2021/11/06 05:59:37;;;;;;;37.15;20.65;;;7.40;99.90;;;;;;4129686;28;20046;-77
2021/11/06 06:01:38;;;;;;;32.00;18.75;;;7.40;99.90;;;;;;4146521;28;20576;-77
2021/11/06 06:03:39;;;;;;;32.90;19.65;;;7.50;99.90;;;;;;4119893;28;20038;-77
2021/11/06 06:05:40;;;;;;;32.17;19.25;;;7.50;99.90;;;;;;4129923;28;20069;-77
2021/11/06 06:07:42;;;;;;;34.25;17.55;;;7.50;99.90;;;;;;4131584;28;20481;-76
2021/11/06 06:09:42;;;;;;;39.55;20.10;;;7.40;99.90;;;;;;4128609;28;20375;-77
2021/11/06 06:11:43;;;;;;;34.00;19.17;;;7.40;99.90;;;;;;4122150;28;20130;-77
2021/11/06 06:13:43;;;;;;;28.80;18.60;;;7.50;99.90;;;;;;4130550;28;20042;-77
2021/11/06 06:15:44;;;;;;;35.50;20.08;;;7.60;99.90;;;;;;4130411;28;20467;-76
2021/11/06 06:17:46;;;;;;;33.55;20.05;;;7.50;99.90;;;;;;4128146;28;20125;-77
2021/11/06 06:19:46;;;;;;;37.97;20.20;;;7.50;99.90;;;;;;4129135;28;20474;-77
2021/11/06 06:21:47;;;;;;;33.03;19.95;;;7.50;99.90;;;;;;4131047;28;20030;-77
2021/11/06 06:23:48;;;;;;;34.17;20.38;;;7.40;99.90;;;;;;4130752;28;20406;-77
2021/11/06 06:25:49;;;;;;;33.88;21.55;;;7.50;99.90;;;;;;4128959;28;20061;-77
2021/11/06 06:27:50;;;;;;;34.40;20.02;;;7.50;99.90;;;;;;4129724;28;20054;-77
2021/11/06 06:29:51;;;;;;;30.70;18.88;;;7.40;99.90;;;;;;4129162;28;20026;-77
2021/11/06 06:31:51;;;;;;;37.33;19.35;;;7.50;99.90;;;;;;4128670;28;20031;-76
2021/11/06 06:33:52;;;;;;;30.95;18.83;;;7.60;99.90;;;;;;4130015;28;20033;-76
2021/11/06 06:35:53;;;;;;;34.50;18.70;;;7.60;99.90;;;;;;4129020;28;20095;-76
2021/11/06 06:37:53;;;;;;;34.47;18.75;;;7.70;99.90;;;;;;4131030;28;20080;-76
2021/11/06 06:39:54;;;;;;;35.20;19.88;;;7.70;99.90;;;;;;4128441;28;20047;-77
2021/11/06 06:41:55;;;;;;;32.67;18.80;;;7.70;99.90;;;;;;4127882;28;20034;-77
2021/11/06 06:43:56;;;;;;;29.98;20.42;;;7.70;99.90;;;;;;4126860;28;20042;-76
2021/11/06 06:45:58;;;;;;;46.60;22.40;;;7.60;99.90;;;;;;4129386;28;20042;-77
2021/11/06 06:47:58;;;;;;;39.03;19.17;;;7.70;99.90;;;;;;4129455;28;20440;-77
2021/11/06 06:50:00;;;;;;;33.38;20.48;;;7.80;99.90;;;;;;4129154;28;20030;-77
2021/11/06 06:52:00;;;;;;;31.17;19.02;;;7.80;99.90;;;;;;4126761;28;20037;-77
2021/11/06 06:54:01;;;;;;;31.55;18.42;;;7.70;99.90;;;;;;4129910;28;20050;-77
2021/11/06 06:56:01;;;;;;;30.13;19.92;;;7.80;99.90;;;;;;4125849;28;20239;-77
2021/11/06 06:58:02;;;;;;;36.03;21.02;;;7.80;99.90;;;;;;4128078;28;20034;-77
2021/11/06 07:00:08;;;;;;;31.13;18.83;;;7.80;99.90;;;;;;4128975;28;20041;-77
2021/11/06 07:02:09;;;;;;;31.65;20.30;;;7.80;99.90;;;;;;4129822;28;20045;-77
2021/11/06 07:04:09;;;;;;;36.25;21.05;;;7.80;99.90;;;;;;4130068;28;20113;-77
2021/11/06 07:06:10;;;;;;;30.08;19.27;;;7.80;99.90;;;;;;4128896;28;20621;-77
2021/11/06 07:08:10;;;;;;;31.85;20.60;;;7.80;99.90;;;;;;4128728;28;20038;-77
2021/11/06 07:10:12;;;;;;;30.42;20.80;;;7.80;99.90;;;;;;4129352;28;20498;-77
2021/11/06 07:12:13;;;;;;;42.25;22.65;;;7.70;99.90;;;;;;4129077;28;20018;-77
2021/11/06 07:14:15;;;;;;;34.08;22.08;;;7.70;99.90;;;;;;4130340;28;20062;-78
2021/11/06 07:16:17;;;;;;;33.83;21.20;;;7.70;99.90;;;;;;4128344;28;20038;-77
2021/11/06 07:18:18;;;;;;;34.60;21.98;;;7.70;99.90;;;;;;4128604;28;20085;-77
2021/11/06 07:20:20;;;;;;;33.20;22.30;;;7.80;99.90;;;;;;4130031;28;20053;-79
2021/11/06 07:22:20;;;;;;;28.50;20.00;;;7.80;99.90;;;;;;4128576;28;20042;-77
2021/11/06 07:24:22;;;;;;;30.30;19.35;;;7.90;99.90;;;;;;4128379;28;20506;-77
2021/11/06 07:26:23;;;;;;;34.25;21.48;;;7.90;99.90;;;;;;4128930;28;20121;-77
2021/11/06 07:28:23;;;;;;;32.25;17.85;;;7.90;99.90;;;;;;4128071;28;20037;-77
2021/11/06 07:30:24;;;;;;;36.70;21.23;;;7.80;99.90;;;;;;4126089;28;20088;-77
2021/11/06 07:32:25;;;;;;;33.80;18.77;;;7.90;99.90;;;;;;4128817;28;20037;-77
2021/11/06 07:34:26;;;;;;;31.98;20.90;;;7.90;99.90;;;;;;4126141;28;20050;-77
2021/11/06 07:36:27;;;;;;;34.53;20.50;;;8.00;99.90;;;;;;4129172;28;20501;-78
2021/11/06 07:38:27;;;;;;;37.58;23.83;;;7.90;99.90;;;;;;4129385;28;20031;-77
2021/11/06 07:40:28;;;;;;;35.63;21.05;;;8.00;99.90;;;;;;4121465;28;20031;-77
2021/11/06 07:42:29;;;;;;;33.63;21.42;;;8.00;99.90;;;;;;4127242;28;20525;-77
2021/11/06 07:44:30;;;;;;;35.90;20.45;;;8.00;99.90;;;;;;4114068;28;20037;-77
2021/11/06 07:46:30;;;;;;;32.63;22.20;;;8.10;99.90;;;;;;4124526;28;20351;-76
2021/11/06 07:48:31;;;;;;;33.22;20.70;;;8.00;99.90;;;;;;4127387;28;20066;-77
2021/11/06 07:50:32;;;;;;;35.08;21.00;;;8.10;99.90;;;;;;4139012;28;20399;-77
2021/11/06 07:52:33;;;;;;;32.88;19.80;;;8.20;99.90;;;;;;4121542;28;20042;-78
2021/11/06 07:54:34;;;;;;;24.67;15.65;;;8.20;99.90;;;;;;4121227;28;20510;-77
2021/11/06 07:56:37;;;;;;;29.33;20.20;;;8.30;99.90;;;;;;4119049;28;20110;-77
2021/11/06 07:58:38;;;;;;;28.30;19.00;;;8.40;99.90;;;;;;4117672;28;20061;-77
2021/11/06 08:00:39;;;;;;;34.13;20.50;;;8.40;99.90;;;;;;4118013;28;20034;-77
2021/11/06 08:02:40;;;;;;;29.10;18.52;;;8.50;99.90;;;;;;4117148;28;20063;-77
2021/11/06 08:04:41;;;;;;;31.70;18.52;;;8.50;99.90;;;;;;4124971;28;20090;-78
2021/11/06 08:06:42;;;;;;;27.33;18.50;;;8.60;99.90;;;;;;4119654;28;20057;-78
2021/11/06 08:08:43;;;;;;;29.15;18.73;;;8.70;99.90;;;;;;4119691;28;20058;-78
2021/11/06 08:10:44;;;;;;;34.97;19.27;;;;;;;;;;4119302;28;20113;-77
2021/11/06 08:12:45;;;;;;;29.40;17.75;;;8.80;99.90;;;;;;4123204;28;20049;-77
2021/11/06 08:14:46;;;;;;;27.63;17.08;;;8.80;99.90;;;;;;4120725;28;20363;-77
2021/11/06 08:16:49;;;;;;;29.13;16.58;;;8.80;99.90;;;;;;4127629;28;20089;-77
2021/11/06 08:18:50;;;;;;;35.60;17.85;;;8.90;99.90;;;;;;4132509;28;20057;-78
2021/11/06 08:20:51;;;;;;;25.25;17.45;;;9.00;99.90;;;;;;4132162;28;20033;-78
2021/11/06 08:22:52;;;;;;;28.85;17.92;;;8.90;99.90;;;;;;4144678;28;20124;-75
2021/11/06 08:24:53;;;;;;;19.90;16.02;;;9.00;99.90;;;;;;4131564;28;20045;-77
2021/11/06 08:26:54;;;;;;;29.20;18.33;;;9.00;99.90;;;;;;4129908;28;20054;-77
2021/11/06 08:28:55;;;;;;;28.45;16.90;;;8.90;99.90;;;;;;4129569;28;20414;-77
2021/11/06 08:30:55;;;;;;;26.92;17.05;;;8.90;99.90;;;;;;4131877;28;20490;-77
2021/11/06 08:32:58;;;;;;;25.42;16.85;;;8.90;99.90;;;;;;4129965;28;20042;-77
2021/11/06 08:34:59;;;;;;;25.00;16.92;;;8.90;99.90;;;;;;4120452;28;20042;-77
2021/11/06 08:37:00;;;;;;;25.92;18.35;;;8.90;99.90;;;;;;4127435;28;20035;-77
2021/11/06 08:39:00;;;;;;;27.98;17.98;;;9.00;99.90;;;;;;4120695;28;20117;-77
2021/11/06 08:41:01;;;;;;;30.05;17.83;;;9.00;99.90;;;;;;4127270;28;20030;-77
2021/11/06 08:43:02;;;;;;;24.08;17.52;;;9.00;99.90;;;;;;4129904;28;20066;-77
2021/11/06 08:45:08;;;;;;;21.58;14.23;;;9.00;99.90;;;;;;4131226;28;20038;-77
2021/11/06 08:47:09;;;;;;;27.15;16.77;;;9.10;99.90;;;;;;4123383;28;20031;-78
2021/11/06 08:49:09;;;;;;;24.70;15.02;;;9.20;99.90;;;;;;4125334;28;20035;-76
2021/11/06 08:51:10;;;;;;;29.02;17.35;;;9.30;99.90;;;;;;4121318;28;20084;-77
2021/11/06 08:53:11;;;;;;;23.45;16.00;;;9.30;99.90;;;;;;4128132;28;20509;-76
2021/11/06 08:55:12;;;;;;;22.75;14.48;;;9.40;99.90;;;;;;4128003;28;20041;-77
2021/11/06 08:57:13;;;;;;;25.95;14.75;;;9.40;99.90;;;;;;4130292;28;20057;-77
2021/11/06 08:59:15;;;;;;;26.35;15.50;;;9.40;99.90;;;;;;4127293;28;20038;-77
2021/11/06 09:01:16;;;;;;;19.67;14.52;;;9.40;99.90;;;;;;4129604;28;20034;-77
2021/11/06 09:03:21;;;;;;;27.40;15.10;;;9.40;99.90;;;;;;4131920;28;20033;-77
2021/11/06 09:05:22;;;;;;;25.23;15.55;;;9.30;99.90;;;;;;4147498;28;20042;-77
2021/11/06 09:07:23;;;;;;;25.60;15.90;;;9.30;99.90;;;;;;4132274;28;20026;-77
2021/11/06 09:09:24;;;;;;;21.67;15.13;;;9.40;99.90;;;;;;4129094;28;20034;-77
2021/11/06 09:11:25;;;;;;;23.23;13.82;;;9.40;99.90;;;;;;4132534;28;20033;-77
2021/11/06 09:13:26;;;;;;;23.40;15.10;;;9.40;99.90;;;;;;4128459;28;20470;-77
2021/11/06 09:15:27;;;;;;;22.92;14.35;;;9.50;99.90;;;;;;4131055;28;20038;-77
2021/11/06 09:17:28;;;;;;;20.27;13.05;;;9.50;99.90;;;;;;4129837;28;20069;-77
2021/11/06 09:19:29;;;;;;;22.25;13.93;;;9.60;99.90;;;;;;4128677;28;20033;-77
2021/11/06 09:21:31;;;;;;;19.35;11.68;;;9.70;99.90;;;;;;4130614;28;20030;-77
2021/11/06 09:23:32;;;;;;;19.50;12.30;;;9.80;99.90;;;;;;4131098;28;20042;-78
2021/11/06 09:25:33;;;;;;;18.50;12.85;;;9.90;99.90;;;;;;4129859;28;20034;-77
2021/11/06 09:27:34;;;;;;;20.08;12.45;;;10.00;99.90;;;;;;4126983;28;20050;-77
2021/11/06 09:29:35;;;;;;;27.55;13.15;;;10.20;99.90;;;;;;4131473;28;20394;-77
2021/11/06 09:31:36;;;;;;;19.58;11.20;;;10.40;99.90;;;;;;4129395;28;20038;-77
2021/11/06 09:33:38;;;;;;;16.98;12.20;;;10.50;99.90;;;;;;4129855;28;20030;-76
2021/11/06 09:35:39;;;;;;;23.50;11.38;;;10.60;99.90;;;;;;4129723;28;20069;-78
2021/11/06 09:37:40;;;;;;;18.65;11.98;;;10.60;99.90;;;;;;4128560;28;20038;-77
2021/11/06 09:39:41;;;;;;;16.13;11.40;;;10.70;99.90;;;;;;4145713;28;20035;-77
2021/11/06 09:41:42;;;;;;;19.13;12.68;;;10.80;99.90;;;;;;4128275;28;20065;-78
2021/11/06 09:43:43;;;;;;;17.73;11.48;;;10.90;99.90;;;;;;4129071;28;20054;-78
2021/11/06 09:45:44;;;;;;;15.18;11.13;;;10.90;99.90;;;;;;4130415;28;20037;-78
2021/11/06 09:47:45;;;;;;;20.48;12.73;;;10.90;99.90;;;;;;4129686;28;20057;-78
2021/11/06 09:49:47;;;;;;;17.00;11.68;;;;;;;;;;4130823;28;20042;-77
2021/11/06 09:51:48;;;;;;;15.43;10.93;;;10.80;99.90;;;;;;4130942;28;20536;-78
2021/11/06 09:53:51;;;;;;;16.10;9.18;;;10.80;99.90;;;;;;4130335;28;20109;-78
2021/11/06 09:55:52;;;;;;;16.48;10.73;;;10.90;99.90;;;;;;4129229;28;20514;-78
2021/11/06 09:57:53;;;;;;;19.33;11.88;;;10.90;99.90;;;;;;4130871;28;20105;-77
2021/11/06 09:59:54;;;;;;;26.52;11.57;;;10.90;99.90;;;;;;4129476;28;20034;-78
2021/11/06 10:01:55;;;;;;;15.52;10.55;;;10.90;99.90;;;;;;4130574;28;20049;-78
2021/11/06 10:03:55;;;;;;;18.92;10.75;;;11.00;99.90;;;;;;4131871;28;20062;-77
2021/11/06 10:05:59;;;;;;;14.55;9.82;;;11.00;99.90;;;;;;4131180;28;20054;-78
2021/11/06 10:08:17;;;;;;;17.00;10.18;;;11.20;99.90;;;;;;4130423;28;20471;-77
2021/11/06 10:10:17;;;;;;;19.73;10.13;;;11.20;99.90;;;;;;4130691;28;20033;-77
2021/11/06 10:12:18;;;;;;;17.00;10.70;;;11.20;99.90;;;;;;4129952;28;20030;-77
2021/11/06 10:14:25;;;;;;;19.73;11.50;;;11.20;99.90;;;;;;4127298;28;20030;-77
2021/11/06 10:16:30;;;;;;;16.63;10.60;;;11.20;99.90;;;;;;4127535;28;20141;-77
2021/11/06 10:18:31;;;;;;;15.80;10.27;;;11.20;99.90;;;;;;4129012;28;20483;-77
2021/11/06 10:20:32;;;;;;;18.45;12.15;;;11.30;99.90;;;;;;4126985;28;20074;-77
2021/11/06 10:22:33;;;;;;;21.33;11.45;;;11.20;99.90;;;;;;4142394;28;20426;-77
2021/11/06 10:24:41;;;;;;;17.02;10.75;;;11.20;99.90;;;;;;4129428;28;20037;-77